Time;durP1;ratioP1;P1;durP2;ratioP2;P2;SDS_P1;SDS_P2;PMS_P1;PMS_P2;Temp;Humidity;BMP_temperature;BMP_pressure;BME280_temperature;BME280_humidity;BME280_pressure;Samples;Min_cycle;Max_cycle;Signal;HPM_P1;HPM_P2
2021/11/27 00:06:54;;;;;;;1999.90;999.90;;;;;;;4.50;69.32;98712.84;15644924;28;20051;-65
2021/11/27 00:14:28;;;;;;;1999.90;999.90;;;;;;;4.31;69.38;98710.59;15681587;28;20045;-66
2021/11/27 00:22:02;;;;;;;1999.90;999.90;;;;;;;4.31;69.31;98705.88;15684015;28;20063;-66
2021/11/27 00:29:35;;;;;;;1999.90;999.90;;;;;;;4.24;69.07;98704.81;15683109;28;20061;-67
2021/11/27 00:37:10;;;;;;;1999.90;999.90;;;;;;;4.22;69.18;98702.38;15670739;28;20051;-67
2021/11/27 00:44:45;;;;;;;1999.90;999.90;;;;;;;4.13;69.10;98696.13;15681102;28;20051;-67
2021/11/27 00:52:19;;;;;;;1999.90;999.90;;;;;;;3.94;69.73;98693.06;15681149;28;20120;-66
2021/11/27 00:59:52;;;;;;;1999.90;999.90;;;;;;;4.13;68.33;98687.84;15696932;28;20635;-66
2021/11/27 01:07:26;;;;;;;1999.90;999.90;;;;;;;3.60;69.61;98685.88;15677572;28;20072;-66
2021/11/27 01:15:00;;;;;;;1999.90;999.90;;;;;;;3.52;70.28;98675.72;15616846;28;20304;-65
2021/11/27 01:22:34;;;;;;;;;;;;;;;3.18;70.68;98672.88;15617550;28;20117;-66
2021/11/27 01:30:10;;;;;;;1999.90;999.90;;;;;;;3.09;70.60;98682.31;15616378;28;19928;-66
2021/11/27 01:37:45;;;;;;;1999.90;999.90;;;;;;;2.93;70.96;98657.31;15616261;28;20413;-67
2021/11/27 01:45:20;;;;;;;1999.90;999.90;;;;;;;3.16;70.64;98655.88;15649293;28;20051;-67
2021/11/27 01:52:55;;;;;;;1999.90;999.90;;;;;;;3.14;70.33;98658.16;15677603;28;20060;-66
2021/11/27 02:00:30;;;;;;;1999.90;999.90;;;;;;;2.83;71.37;98647.47;15677688;28;20337;-66
2021/11/27 02:08:05;;;;;;;1999.90;999.90;;;;;;;3.14;69.95;98649.06;15693123;28;20041;-65
2021/11/27 02:15:39;;;;;;;1999.90;999.90;;;;;;;2.68;71.75;98639.75;15663328;28;20048;-65
2021/11/27 02:23:13;;;;;;;;;;;;;;;2.88;71.15;98638.19;15676826;28;20077;-67
2021/11/27 02:30:46;;;;;;;1999.90;999.90;;;;;;;2.90;70.66;98638.66;15676294;28;19952;-66
2021/11/27 02:38:20;;;;;;;1999.90;999.90;;;;;;;2.67;71.64;98635.38;15675782;28;20037;-66
2021/11/27 02:45:54;;;;;;;1999.90;999.90;;;;;;;2.61;71.54;98622.97;15675575;28;20090;-65
2021/11/27 02:53:28;;;;;;;1999.90;999.90;;;;;;;2.56;71.55;98615.66;15617515;28;20099;-65
2021/11/27 03:01:04;;;;;;;1999.90;999.90;;;;;;;2.71;70.81;98619.84;15613193;28;20041;-66
2021/11/27 03:08:39;;;;;;;1999.90;999.90;;;;;;;2.58;71.43;98613.38;15612410;28;20038;-66
2021/11/27 03:16:12;;;;;;;1999.90;999.90;;;;;;;2.42;72.03;98606.84;15611570;28;20493;-66
2021/11/27 03:23:46;;;;;;;1999.90;999.90;;;;;;;2.25;72.75;98610.47;15647683;28;20509;-65
2021/11/27 03:31:19;;;;;;;1999.90;999.90;;;;;;;2.16;72.40;98611.63;15718783;28;20502;-66
2021/11/27 03:38:54;;;;;;;1999.90;999.90;;;;;;;2.10;72.38;98615.69;15701650;28;20040;-66
2021/11/27 03:46:27;;;;;;;1999.90;999.90;;;;;;;2.15;72.29;98618.25;15684469;28;20148;-65
2021/11/27 03:54:01;;;;;;;1999.90;999.90;;;;;;;2.23;71.63;98612.72;15684509;28;20040;-66
2021/11/27 04:01:35;;;;;;;1999.90;999.90;;;;;;;2.52;71.00;98619.44;15683676;28;20040;-66
2021/11/27 04:09:11;;;;;;;1999.90;999.90;;;;;;;2.29;71.35;98619.69;15683576;28;20049;-65
2021/11/27 04:16:44;;;;;;;1999.90;999.90;;;;;;;2.12;71.84;98616.97;15683008;28;20060;-66
2021/11/27 04:24:18;;;;;;;1999.90;999.90;;;;;;;2.36;71.22;98616.41;15652547;28;20227;-66
2021/11/27 04:31:52;;;;;;;1999.90;999.90;;;;;;;2.20;71.39;98616.16;15619736;28;20049;-66
2021/11/27 04:39:26;;;;;;;1999.90;999.90;;;;;;;2.36;70.91;98626.59;15621469;28;20127;-65
2021/11/27 04:46:59;;;;;;;1999.90;999.90;;;;;;;2.27;70.86;98630.19;15619354;28;20061;-64
2021/11/27 04:54:33;;;;;;;1999.90;999.90;;;;;;;2.63;69.94;98625.38;15621060;28;20038;-62
2021/11/27 05:02:06;;;;;;;1999.90;999.90;;;;;;;2.27;71.13;98632.13;15660156;28;20095;-65
2021/11/27 05:09:40;;;;;;;1999.90;999.90;;;;;;;2.48;70.31;98615.72;15674572;28;20040;-65
2021/11/27 05:17:13;;;;;;;1999.90;999.90;;;;;;;2.27;71.12;98630.19;15637499;28;20168;-64
2021/11/27 05:24:48;;;;;;;1999.90;999.90;;;;;;;2.28;71.17;98636.50;15650068;28;20046;-64
2021/11/27 05:32:25;;;;;;;1999.90;999.90;;;;;;;2.13;71.40;98628.78;15679426;28;20041;-65
2021/11/27 05:40:05;;;;;;;1999.90;999.90;;;;;;;2.18;71.62;98632.16;15677870;28;20041;-64
2021/11/27 05:47:38;;;;;;;1999.90;999.90;;;;;;;2.20;71.41;98642.84;15679121;28;20049;-64
2021/11/27 05:55:34;;;;;;;1999.90;999.90;;;;;;;2.10;71.74;98635.75;15677020;28;20654;-65
2021/11/27 06:03:07;;;;;;;1999.90;999.90;;;;;;;2.45;70.45;98639.19;15677985;28;20140;-64
2021/11/27 06:10:41;;;;;;;1999.90;999.90;;;;;;;2.16;71.88;98644.63;15679618;28;20131;-63
2021/11/27 06:18:15;;;;;;;1999.90;999.90;;;;;;;2.44;70.93;98643.09;15678983;28;20329;-64
2021/11/27 06:25:49;;;;;;;1999.90;999.90;;;;;;;2.47;70.76;98653.44;15686347;28;20081;-64
2021/11/27 06:33:22;;;;;;;1999.90;999.90;;;;;;;2.36;71.30;98665.13;15684236;28;20051;-65
2021/11/27 06:40:56;;;;;;;1999.90;999.90;;;;;;;2.40;71.42;98663.34;15677120;28;20053;-64
2021/11/27 06:48:40;;;;;;;1999.90;999.90;;;;;;;2.70;70.65;98677.97;15677368;28;20080;-64
2021/11/27 06:56:16;;;;;;;1999.90;999.90;;;;;;;2.71;70.14;98672.16;15684146;28;20068;-63
2021/11/27 07:03:48;;;;;;;1999.90;999.90;;;;;;;2.78;70.21;98693.66;15688317;28;20049;-64
2021/11/27 07:11:41;;;;;;;1999.90;999.90;;;;;;;2.84;70.66;98698.66;15687391;28;20162;-65
2021/11/27 07:19:14;;;;;;;1999.90;999.90;;;;;;;2.98;69.62;98698.41;15686391;28;20056;-65
2021/11/27 07:26:48;;;;;;;1999.90;999.90;;;;;;;3.07;69.83;98703.91;15686226;28;20044;-64
2021/11/27 07:34:21;;;;;;;1999.90;999.90;;;;;;;2.92;70.15;98726.47;15686554;28;20040;-66
2021/11/27 07:41:55;;;;;;;1999.90;999.90;;;;;;;3.24;68.98;98725.88;15686918;28;20045;-66
2021/11/27 07:49:46;;;;;;;1999.90;999.90;;;;;;;3.51;68.79;98734.75;15685864;28;20072;-66
2021/11/27 07:57:39;;;;;;;1999.90;999.90;;;;;;;3.67;69.01;98733.84;15678966;28;20064;-66
2021/11/27 08:05:11;;;;;;;1999.90;999.90;;;;;;;4.07;66.77;98724.31;15680389;28;20053;-65
2021/11/27 08:12:46;;;;;;;1999.90;999.90;;;;;;;4.24;66.13;98730.44;15639058;28;20128;-66
2021/11/27 08:20:18;;;;;;;1999.90;999.90;;;;;;;4.39;66.75;98729.03;15658956;28;20056;-67
2021/11/27 08:27:53;;;;;;;1999.90;999.90;;;;;;;4.13;67.54;98737.53;15683076;28;20069;-64
2021/11/27 08:35:25;;;;;;;1999.90;999.90;;;;;;;4.38;67.14;98743.16;15661486;28;20128;-67
2021/11/27 08:42:59;;;;;;;1999.90;999.90;;;;;;;4.48;66.14;98751.84;15621572;28;20518;-64
2021/11/27 08:50:32;;;;;;;1999.90;999.90;;;;;;;4.22;66.77;98730.00;15621554;28;20045;-65
2021/11/27 08:58:06;;;;;;;1999.90;999.90;;;;;;;4.14;68.18;98738.34;15620223;28;20576;-65
2021/11/27 09:05:40;;;;;;;1999.90;999.90;;;;;;;4.19;68.15;98744.47;15618907;28;20570;-65
2021/11/27 09:13:14;;;;;;;1999.90;999.90;;;;;;;4.29;67.70;98737.72;15669424;28;20068;-65
2021/11/27 09:20:47;;;;;;;1999.90;999.90;;;;;;;4.17;67.57;98745.94;15680222;28;20520;-64
2021/11/27 09:28:22;;;;;;;1999.90;999.90;;;;;;;4.60;66.55;98748.31;15683651;28;20522;-64
2021/11/27 09:35:59;;;;;;;1999.90;999.90;;;;;;;5.00;65.47;98762.31;15677658;28;20141;-65
2021/11/27 09:43:34;;;;;;;1999.90;999.90;;;;;;;4.68;66.20;98743.81;15677875;28;20698;-65
2021/11/27 09:51:08;;;;;;;1999.90;999.90;;;;;;;4.87;66.12;98731.09;15678313;28;20532;-65
2021/11/27 09:58:42;;;;;;;1999.90;999.90;;;;;;;4.98;64.84;98747.22;15679104;28;20091;-65
2021/11/27 10:06:15;;;;;;;1999.90;999.90;;;;;;;5.57;63.86;98750.34;15676538;28;20068;-65
2021/11/27 10:13:49;;;;;;;1999.90;999.90;;;;;;;5.59;63.57;98750.81;15676603;28;20456;-65
2021/11/27 10:21:23;;;;;;;1999.90;999.90;;;;;;;5.22;64.25;98752.78;15677646;28;20068;-66
2021/11/27 10:29:17;;;;;;;1999.90;999.90;;;;;;;5.43;63.89;98752.69;15668750;28;20056;-67
2021/11/27 10:36:50;;;;;;;1999.90;999.90;;;;;;;5.14;65.26;98757.28;15673147;28;20075;-65
2021/11/27 10:44:31;;;;;;;1999.90;999.90;;;;;;;5.57;64.91;98752.31;15624870;28;20461;-65
2021/11/27 10:52:05;;;;;;;1999.90;999.90;;;;;;;5.82;63.78;98758.59;15655831;28;20060;-67
2021/11/27 10:59:41;;;;;;;1999.90;999.90;;;;;;;5.76;62.97;98752.53;15675990;28;20080;-66
2021/11/27 11:07:20;;;;;;;1999.90;999.90;;;;;;;5.76;64.65;98747.00;15648288;28;20052;-66
2021/11/27 11:15:07;;;;;;;1999.90;999.90;;;;;;;5.39;65.17;98735.13;15613567;28;20060;-66
2021/11/27 11:22:40;;;;;;;1999.90;999.90;;;;;;;5.85;64.15;98736.59;15613625;28;20049;-66
2021/11/27 11:30:16;;;;;;;1999.90;999.90;;;;;;;5.59;64.58;98730.63;15612630;28;20080;-66
2021/11/27 11:37:49;;;;;;;1999.90;999.90;;;;;;;5.97;63.83;98716.41;15612824;28;20050;-66
2021/11/27 11:45:23;;;;;;;1999.90;999.90;;;;;;;6.39;62.24;98727.91;15683000;28;20521;-66
2021/11/27 11:53:05;;;;;;;1999.90;999.90;;;;;;;6.17;62.56;98723.72;15686352;28;20057;-65
2021/11/27 12:00:42;;;;;;;1999.90;999.90;;;;;;;6.30;62.13;98727.25;15686951;28;20041;-65
2021/11/27 12:08:16;;;;;;;1999.90;999.90;;;;;;;6.24;61.81;98723.09;15687878;28;20041;-65
2021/11/27 12:16:02;;;;;;;1999.90;999.90;;;;;;;6.10;62.35;98729.03;15674279;28;20100;-66
2021/11/27 12:23:39;;;;;;;1999.90;999.90;;;;;;;5.99;63.05;98745.34;15684380;28;20052;-66
2021/11/27 12:31:15;;;;;;;1999.90;999.90;;;;;;;5.92;63.84;98761.72;15683058;28;20131;-66
2021/11/27 12:38:55;;;;;;;1999.90;999.90;;;;;;;5.91;64.75;98760.13;15684143;28;20060;-66
2021/11/27 12:46:31;;;;;;;1999.90;999.90;;;;;;;5.52;66.06;98747.81;15683479;28;20033;-65
2021/11/27 12:54:26;;;;;;;1999.90;999.90;;;;;;;5.80;67.07;98759.75;15683227;28;20053;-65
2021/11/27 13:02:00;;;;;;;1999.90;999.90;;;;;;;5.49;68.39;98760.38;15685256;28;20045;-66
2021/11/27 13:09:33;;;;;;;1999.90;999.90;;;;;;;5.48;68.85;98750.47;15683220;28;20164;-65
2021/11/27 13:17:11;;;;;;;1999.90;999.90;;;;;;;5.64;68.12;98756.13;15681396;28;20432;-65
2021/11/27 13:24:55;;;;;;;1999.90;999.90;;;;;;;5.90;68.28;98760.44;15680705;28;20051;-65
2021/11/27 13:32:40;;;;;;;1999.90;999.90;;;;;;;6.03;68.37;98770.34;15680541;28;20040;-66
2021/11/27 13:40:15;;;;;;;1999.90;999.90;;;;;;;5.86;68.64;98776.94;15681191;28;20423;-66
2021/11/27 13:47:56;;;;;;;1999.90;999.90;;;;;;;6.24;68.35;98779.28;15679977;28;20625;-66
2021/11/27 13:55:32;;;;;;;1999.90;999.90;;;;;;;5.83;69.21;98785.13;15679255;28;20049;-66
2021/11/27 14:03:07;;;;;;;1999.90;999.90;;;;;;;5.54;71.58;98784.25;15678336;28;20055;-66
2021/11/27 14:10:43;;;;;;;1999.90;999.90;;;;;;;5.64;71.05;98791.28;15679921;28;20569;-65
2021/11/27 14:18:18;;;;;;;1999.90;999.90;;;;;;;5.58;72.45;98790.69;15678694;28;20422;-66
2021/11/27 14:26:04;;;;;;;1999.90;999.90;;;;;;;5.91;72.68;98801.63;15643512;28;20048;-66
2021/11/27 14:33:40;;;;;;;1999.90;999.90;;;;;;;5.36;73.90;98805.78;15677918;28;20091;-66
2021/11/27 14:41:15;;;;;;;1999.90;999.90;;;;;;;5.62;73.95;98799.91;15669583;28;20056;-66
2021/11/27 14:48:49;;;;;;;1999.90;999.90;;;;;;;5.62;74.49;98799.91;15672494;28;20080;-66
2021/11/27 14:56:23;;;;;;;1999.90;999.90;;;;;;;5.47;74.59;98809.72;15629135;28;20045;-65
2021/11/27 15:03:57;;;;;;;1999.90;999.90;;;;;;;5.44;74.79;98799.34;15653737;28;20135;-66
2021/11/27 15:11:29;;;;;;;1999.90;999.90;;;;;;;5.38;75.42;98808.22;15677571;28;20045;-66
2021/11/27 15:19:05;;;;;;;1999.90;999.90;;;;;;;5.00;76.40;98816.78;15665822;28;20053;-66
2021/11/27 15:26:38;;;;;;;1999.90;999.90;;;;;;;5.21;75.42;98814.78;15626324;28;20049;-65
2021/11/27 15:34:12;;;;;;;1999.90;999.90;;;;;;;5.21;75.95;98823.88;15626503;28;20514;-66
2021/11/27 15:41:46;;;;;;;1999.90;999.90;;;;;;;5.13;76.54;98837.78;15625036;28;20462;-65
2021/11/27 15:49:20;;;;;;;1999.90;999.90;;;;;;;4.88;77.52;98842.44;15626107;28;20129;-65
2021/11/27 15:56:53;;;;;;;1999.90;999.90;;;;;;;5.12;76.56;98845.28;15679116;28;20057;-65
2021/11/27 16:04:27;;;;;;;1999.90;999.90;;;;;;;4.65;75.99;98847.53;15685794;28;20049;-65
2021/11/27 16:12:00;;;;;;;1999.90;999.90;;;;;;;4.34;77.59;98864.53;15684984;28;20124;-65
2021/11/27 16:19:34;;;;;;;1999.90;999.90;;;;;;;4.41;77.60;98869.50;15685952;28;20144;-65
2021/11/27 16:27:07;;;;;;;1999.90;999.90;;;;;;;4.21;78.40;98874.69;15678671;28;20040;-66
2021/11/27 16:34:42;;;;;;;1999.90;999.90;;;;;;;4.21;77.97;98885.72;15678942;28;20095;-65
2021/11/27 16:42:16;;;;;;;1999.90;999.90;;;;;;;4.39;76.55;98896.66;15628869;22;20041;-59
2021/11/27 16:49:50;;;;;;;1999.90;999.90;;;;;;;4.19;76.50;98895.50;15583457;28;20049;-60
2021/11/27 16:57:24;;;;;;;1999.90;999.90;;;;;;;3.78;77.35;98913.56;15555136;28;20494;-58
2021/11/27 17:04:58;;;;;;;1999.90;999.90;;;;;;;3.67;77.49;98918.66;15536952;28;20097;-60
2021/11/27 17:12:31;;;;;;;1999.90;999.90;;;;;;;3.67;76.69;98906.81;15493753;28;20118;-60
2021/11/27 17:20:08;;;;;;;1999.90;999.90;;;;;;;4.05;76.31;98904.00;15491722;28;20466;-59
2021/11/27 17:27:41;;;;;;;1999.90;999.90;;;;;;;3.94;75.80;98903.56;15492036;28;20097;-61
2021/11/27 17:35:15;;;;;;;1999.90;999.90;;;;;;;3.86;76.75;98887.09;15489239;28;20046;-60
2021/11/27 17:42:48;;;;;;;1999.90;999.90;;;;;;;3.92;77.64;98886.56;15537046;28;20561;-60
2021/11/27 17:50:22;;;;;;;1999.90;999.90;;;;;;;3.80;77.79;98891.16;15551654;28;20053;-59
2021/11/27 17:57:55;;;;;;;1999.90;999.90;;;;;;;3.72;78.43;98896.38;15566869;28;20099;-60
2021/11/27 18:05:29;;;;;;;1999.90;999.90;;;;;;;3.59;78.73;98893.88;15566151;28;20038;-60
2021/11/27 18:13:02;;;;;;;1999.90;999.90;;;;;;;3.92;77.71;98908.63;15552111;28;20045;-61
2021/11/27 18:20:52;;;;;;;1999.90;999.90;;;;;;;3.92;77.70;98907.81;15551855;28;20053;-59
2021/11/27 18:28:25;;;;;;;1999.90;999.90;;;;;;;4.03;77.31;98920.91;15551038;28;20305;-61
2021/11/27 18:36:03;;;;;;;1999.90;999.90;;;;;;;4.11;78.11;98919.25;15565659;28;20057;-61
2021/11/27 18:43:35;;;;;;;1999.90;999.90;;;;;;;4.20;77.99;98919.19;15497232;28;20383;-59
2021/11/27 18:51:09;;;;;;;1999.90;999.90;;;;;;;4.51;77.20;98911.34;15488683;28;20056;-60
2021/11/27 18:58:43;;;;;;;1999.90;999.90;;;;;;;4.74;75.64;98913.75;15488760;28;20563;-61
2021/11/27 19:06:17;;;;;;;1999.90;999.90;;;;;;;4.33;76.50;98909.84;15487540;28;20053;-60
2021/11/27 19:13:52;;;;;;;1999.90;999.90;;;;;;;4.29;77.32;98917.19;15492024;28;20038;-60
2021/11/27 19:21:26;;;;;;;1999.90;999.90;;;;;;;4.48;77.41;98938.81;15488681;28;20483;-60
2021/11/27 19:28:59;;;;;;;1999.90;999.90;;;;;;;4.53;77.05;98950.47;15518148;28;20129;-60
2021/11/27 19:36:33;;;;;;;1999.90;999.90;;;;;;;4.42;77.59;98960.31;15524617;28;20042;-60
2021/11/27 19:44:08;;;;;;;1999.90;999.90;;;;;;;4.45;77.83;98965.16;15521564;28;20137;-60
2021/11/27 19:51:42;;;;;;;1999.90;999.90;;;;;;;4.54;77.79;98965.09;15496997;28;20100;-60
2021/11/27 19:59:15;;;;;;;1999.90;999.90;;;;;;;4.55;77.85;98945.44;15561988;28;20478;-59
2021/11/27 20:06:49;;;;;;;1999.90;999.90;;;;;;;4.99;76.46;98939.53;15572721;28;20133;-59
2021/11/27 20:14:24;;;;;;;1999.90;999.90;;;;;;;4.78;75.57;98928.50;15501042;28;20046;-57
2021/11/27 20:21:58;;;;;;;1999.90;999.90;;;;;;;4.81;75.84;98936.16;15495310;28;20069;-59
2021/11/27 20:29:31;;;;;;;1999.90;999.90;;;;;;;4.48;76.29;98956.22;15493797;28;20070;-60
2021/11/27 20:37:06;;;;;;;1999.90;999.90;;;;;;;4.61;76.65;98954.34;15495090;28;20138;-60
2021/11/27 20:44:39;;;;;;;1999.90;999.90;;;;;;;4.34;76.70;98974.97;15519233;28;20304;-61
2021/11/27 20:52:14;;;;;;;1999.90;999.90;;;;;;;4.47;76.58;99001.53;15556838;28;20137;-61
2021/11/27 20:59:47;;;;;;;1999.90;999.90;;;;;;;4.58;76.41;99002.75;15554795;28;20435;-60
2021/11/27 21:07:21;;;;;;;1999.90;999.90;;;;;;;4.67;76.38;99022.03;15554549;28;20042;-62
2021/11/27 21:14:53;;;;;;;1999.90;999.90;;;;;;;4.86;75.51;99044.50;15552569;28;20386;-62
2021/11/27 21:22:29;;;;;;;1999.90;999.90;;;;;;;4.80;76.89;99056.13;15527192;28;20129;-60
2021/11/27 21:30:02;;;;;;;1999.90;999.90;;;;;;;4.96;76.30;99046.06;15520791;28;20054;-60
2021/11/27 21:37:37;;;;;;;1999.90;999.90;;;;;;;4.93;77.52;99066.91;15548523;28;20046;-61
2021/11/27 21:45:10;;;;;;;1999.90;999.90;;;;;;;5.02;76.82;99060.50;15492669;28;20043;-58
2021/11/27 21:52:44;;;;;;;1999.90;999.90;;;;;;;5.02;77.43;99061.31;15492136;28;20050;-60
2021/11/27 22:00:19;;;;;;;1999.90;999.90;;;;;;;4.90;77.40;99077.84;15541145;28;20046;-59
2021/11/27 22:07:54;;;;;;;1999.90;999.90;;;;;;;4.92;77.65;99061.72;15550468;28;20562;-61
2021/11/27 22:15:27;;;;;;;1999.90;999.90;;;;;;;4.98;77.46;99071.41;15565188;28;20077;-59
2021/11/27 22:23:03;;;;;;;1999.90;999.90;;;;;;;5.12;77.49;99071.19;15550590;28;20052;-59
2021/11/27 22:30:36;;;;;;;1999.90;999.90;;;;;;;5.19;77.07;99057.59;15544038;28;20081;-60
2021/11/27 22:38:10;;;;;;;1999.90;999.90;;;;;;;5.25;77.60;99061.78;15503465;22;20499;-65
2021/11/27 22:45:45;;;;;;;1999.90;999.90;;;;;;;5.25;76.80;99059.03;15492966;28;20439;-66
2021/11/27 22:53:19;;;;;;;1999.90;999.90;;;;;;;5.36;76.82;99057.47;15498706;28;20046;-66
2021/11/27 23:01:00;;;;;;;1999.90;999.90;;;;;;;5.43;76.23;99060.50;15492251;28;20061;-66
2021/11/27 23:08:35;;;;;;;1999.90;999.90;;;;;;;5.28;76.30;99054.78;15493793;28;20046;-65
2021/11/27 23:16:08;;;;;;;1999.90;999.90;;;;;;;5.32;76.42;99050.19;15493799;28;20093;-66
2021/11/27 23:23:45;;;;;;;1999.90;999.90;;;;;;;5.23;76.25;99053.03;15493147;28;20129;-64
2021/11/27 23:31:18;;;;;;;1999.90;999.90;;;;;;;5.17;76.43;99049.66;15492100;28;20054;-66
2021/11/27 23:38:52;;;;;;;1999.90;999.90;;;;;;;5.16;76.55;99045.28;15499308;28;20051;-66
2021/11/27 23:46:25;;;;;;;1999.90;999.90;;;;;;;5.18;76.50;99054.03;15503593;28;20101;-64
2021/11/27 23:53:59;;;;;;;1999.90;999.90;;;;;;;4.68;77.64;99067.88;15496500;28;20416;-66
